Terminal Aerodrome Forecast
Issued by NWS Brownsville, TX

Home | Current Version | Previous Version | Text Only | Print | Product List | Glossary On
Versions: 1 2 3 4 5 6 7 8 9 10 11 12 13 14 15 16 17 18 19
000
FTUS44 KBRO 202328
TAFMFE
TAF
KMFE 202328Z 2100/2124 02012G17KT P6SM FEW250
     FM210200 VRB03KT 6SM BR SKC
      TEMPO 2107/2111 1SM BR
     FM211300 32017G25KT P6SM SKC=

USA.gov is the U.S. government's official web portal to all federal, state and local government web resources and services.